createdAt,value
2023-05-09T00:00:37.291Z,30.55
2023-05-09T00:03:05.685Z,29.98
2023-05-09T00:05:33.423Z,29.77
2023-05-09T00:08:00.976Z,30.58
2023-05-09T00:10:28.519Z,26.30
2023-05-09T00:12:56.659Z,28.13
2023-05-09T00:15:25.520Z,32.55
2023-05-09T00:17:53.010Z,39.88
2023-05-09T00:20:20.517Z,37.47
2023-05-09T00:22:48.094Z,24.35
2023-05-09T00:25:15.329Z,30.00
2023-05-09T00:27:42.921Z,25.17
2023-05-09T00:30:10.187Z,28.08
2023-05-09T00:32:37.444Z,26.00
2023-05-09T00:35:05.768Z,27.67
2023-05-09T00:37:32.750Z,26.83
2023-05-09T00:40:00.216Z,19.58
2023-05-09T00:42:27.842Z,30.95
2023-05-09T00:44:54.876Z,16.77
2023-05-09T00:47:23.552Z,24.80
2023-05-09T00:49:51.159Z,34.67
2023-05-09T00:52:22.804Z,23.05
2023-05-09T00:54:51.373Z,24.73
2023-05-09T00:57:19.116Z,22.63
2023-05-09T00:59:46.757Z,26.67
2023-05-09T01:02:15.705Z,23.40
2023-05-09T01:04:44.604Z,20.20
2023-05-09T01:07:24.014Z,16.60
2023-05-09T01:10:30.685Z,16.35
2023-05-09T01:13:10.099Z,19.00
2023-05-09T01:15:41.185Z,17.58
2023-05-09T01:18:13.490Z,20.73
2023-05-09T01:20:51.956Z,21.55
2023-05-09T01:23:40.078Z,23.70
2023-05-09T01:26:22.069Z,26.60
2023-05-09T01:29:26.531Z,20.38
2023-05-09T01:31:54.695Z,18.58
2023-05-09T01:34:22.536Z,24.77
2023-05-09T01:36:50.103Z,23.33
2023-05-09T01:39:17.528Z,24.75
2023-05-09T01:41:44.843Z,24.50
2023-05-09T01:44:12.184Z,25.65
2023-05-09T01:46:39.670Z,24.08
2023-05-09T01:49:07.874Z,22.55
2023-05-09T01:51:35.663Z,23.70
2023-05-09T01:54:02.825Z,22.83
2023-05-09T01:56:30.767Z,19.20
2023-05-09T01:58:58.791Z,16.92
2023-05-09T02:01:26.490Z,22.95
2023-05-09T02:03:54.078Z,17.38
2023-05-09T02:06:23.122Z,28.35
2023-05-09T02:08:51.260Z,20.58
2023-05-09T02:11:18.832Z,23.80
2023-05-09T02:13:46.459Z,20.58
2023-05-09T02:16:13.615Z,17.02
2023-05-09T02:18:41.856Z,26.48
2023-05-09T02:21:08.941Z,18.25
2023-05-09T02:23:36.442Z,17.60
2023-05-09T02:26:03.793Z,20.50
2023-05-09T02:28:30.919Z,22.38
2023-05-09T02:30:58.758Z,22.42
2023-05-09T02:33:25.985Z,17.30
2023-05-09T02:35:53.197Z,22.58
2023-05-09T02:38:21.141Z,21.65
2023-05-09T02:40:50.917Z,20.50
2023-05-09T02:43:19.557Z,22.33
2023-05-09T02:45:47.291Z,17.38
2023-05-09T02:48:14.746Z,20.55
2023-05-09T02:50:43.164Z,24.48
2023-05-09T02:53:10.291Z,18.27
2023-05-09T02:55:40.253Z,15.65
2023-05-09T02:58:14.095Z,16.70
2023-05-09T03:00:43.705Z,18.90
2023-05-09T03:03:12.601Z,21.60
2023-05-09T03:05:40.802Z,19.70
2023-05-09T03:08:07.933Z,32.40
2023-05-09T03:10:35.312Z,22.60
2023-05-09T03:13:02.871Z,23.17
2023-05-09T03:15:30.403Z,20.30
2023-05-09T03:18:00.105Z,19.52
2023-05-09T03:20:27.453Z,23.40
2023-05-09T03:22:54.845Z,18.88
2023-05-09T03:25:22.522Z,19.92
2023-05-09T03:27:50.386Z,25.55
2023-05-09T03:30:17.501Z,24.15
2023-05-09T03:32:48.392Z,21.35
2023-05-09T03:35:15.910Z,18.42
2023-05-09T03:37:43.824Z,14.35
2023-05-09T03:40:11.338Z,22.85
2023-05-09T03:42:48.566Z,14.88
2023-05-09T03:45:16.414Z,15.57
2023-05-09T03:47:45.966Z,21.63
2023-05-09T03:50:13.572Z,17.20
2023-05-09T03:52:41.565Z,16.00
2023-05-09T03:55:09.942Z,21.38
2023-05-09T03:57:37.618Z,16.00
2023-05-09T04:00:06.534Z,18.63
2023-05-09T04:02:42.537Z,13.77
2023-05-09T04:05:19.290Z,17.25
2023-05-09T04:07:47.498Z,23.77
2023-05-09T04:10:16.032Z,19.88
2023-05-09T04:12:43.908Z,15.45
2023-05-09T04:15:11.904Z,15.05
2023-05-09T04:17:40.361Z,13.48
2023-05-09T04:20:08.372Z,20.02
2023-05-09T04:22:36.259Z,17.67
2023-05-09T04:25:04.432Z,26.05
2023-05-09T04:27:31.562Z,18.50
2023-05-09T04:29:58.849Z,18.45
2023-05-09T04:32:27.204Z,19.60
2023-05-09T04:34:54.714Z,16.17
2023-05-09T04:37:27.104Z,12.15
2023-05-09T04:39:54.638Z,21.25
2023-05-09T04:42:28.097Z,17.77
2023-05-09T04:44:55.525Z,19.05
2023-05-09T04:47:23.216Z,19.27
2023-05-09T04:49:50.609Z,20.20
2023-05-09T04:52:17.712Z,18.75
2023-05-09T04:54:45.312Z,26.45
2023-05-09T04:57:18.396Z,19.38
2023-05-09T04:59:52.741Z,20.27
2023-05-09T05:02:21.379Z,13.68
2023-05-09T05:04:54.334Z,14.70
2023-05-09T05:07:26.375Z,21.15
2023-05-09T05:09:54.407Z,17.13
2023-05-09T05:12:22.705Z,22.00
2023-05-09T05:14:50.487Z,22.63
2023-05-09T05:17:21.609Z,19.17
2023-05-09T05:19:49.071Z,22.33
2023-05-09T05:22:16.631Z,17.20
2023-05-09T05:24:46.383Z,20.27
2023-05-09T05:27:14.372Z,21.38
2023-05-09T05:29:41.561Z,27.98
2023-05-09T05:32:08.838Z,20.77
2023-05-09T05:34:36.324Z,20.27
2023-05-09T05:37:03.917Z,21.50
2023-05-09T05:39:31.092Z,19.80
2023-05-09T05:41:58.507Z,19.92
2023-05-09T05:44:26.202Z,20.50
2023-05-09T05:46:53.757Z,16.77
2023-05-09T05:49:21.359Z,20.60
2023-05-09T05:51:48.728Z,21.20
2023-05-09T05:54:17.048Z,21.33
2023-05-09T05:56:44.569Z,24.35
2023-05-09T05:59:13.322Z,18.17
2023-05-09T06:01:41.452Z,21.23
2023-05-09T06:04:08.644Z,24.25
2023-05-09T06:06:36.241Z,24.33
2023-05-09T06:09:03.703Z,28.52
2023-05-09T06:11:30.930Z,23.45
2023-05-09T06:13:59.131Z,30.33
2023-05-09T06:16:27.972Z,29.80
2023-05-09T06:18:56.048Z,35.40
2023-05-09T06:21:23.602Z,31.83
2023-05-09T06:24:06.630Z,46.10
2023-05-09T06:26:38.492Z,27.23
2023-05-09T06:29:08.489Z,28.73
2023-05-09T06:31:38.548Z,28.42
2023-05-09T06:34:06.237Z,27.90
2023-05-09T06:36:34.069Z,25.42
2023-05-09T06:39:01.598Z,34.60
2023-05-09T06:41:28.987Z,31.15
2023-05-09T06:43:56.031Z,30.40
2023-05-09T06:46:23.410Z,35.65
2023-05-09T06:48:50.737Z,30.92
2023-05-09T06:51:18.195Z,29.58
2023-05-09T06:53:45.261Z,32.72
2023-05-09T06:56:12.487Z,45.88
2023-05-09T06:58:39.661Z,38.35
2023-05-09T07:01:06.944Z,37.83
2023-05-09T07:03:35.198Z,38.13
2023-05-09T07:06:02.559Z,37.28
2023-05-09T07:08:29.601Z,32.13
2023-05-09T07:10:56.585Z,42.97
2023-05-09T07:13:25.032Z,39.28
2023-05-09T07:15:53.415Z,35.00
2023-05-09T07:18:20.876Z,36.17
2023-05-09T07:20:48.012Z,39.67
2023-05-09T07:23:15.885Z,33.05
2023-05-09T07:25:44.898Z,37.60
2023-05-09T07:28:12.861Z,36.42
2023-05-09T07:30:41.305Z,35.03
2023-05-09T07:33:08.499Z,31.48
2023-05-09T07:35:35.773Z,40.17
2023-05-09T07:38:02.857Z,39.20
2023-05-09T07:40:30.055Z,41.15
2023-05-09T07:42:57.261Z,40.35
2023-05-09T07:45:24.312Z,34.33
2023-05-09T07:47:51.806Z,40.80
2023-05-09T07:50:20.487Z,39.75
2023-05-09T07:52:48.056Z,33.90
2023-05-09T07:55:15.358Z,34.72
2023-05-09T07:57:42.553Z,37.78
2023-05-09T08:00:10.384Z,44.70
2023-05-09T08:02:43.599Z,35.60
2023-05-09T08:05:11.757Z,39.00
2023-05-09T08:07:39.040Z,34.60
2023-05-09T08:10:06.980Z,43.22
2023-05-09T08:12:34.483Z,40.65
2023-05-09T08:15:02.303Z,46.88
2023-05-09T08:17:32.013Z,36.38
2023-05-09T08:19:59.010Z,42.03
2023-05-09T08:22:26.679Z,35.50
2023-05-09T08:24:53.826Z,39.83
2023-05-09T08:27:21.116Z,36.38
2023-05-09T08:29:48.878Z,40.05
2023-05-09T08:32:16.192Z,36.75
2023-05-09T08:34:43.368Z,34.28
2023-05-09T08:37:11.457Z,40.00
2023-05-09T08:39:39.656Z,40.47
2023-05-09T08:42:07.177Z,42.88
2023-05-09T08:44:34.191Z,39.50
2023-05-09T08:47:03.092Z,36.83
2023-05-09T08:49:30.549Z,37.30
2023-05-09T08:51:57.671Z,35.08
2023-05-09T08:54:25.026Z,43.35
2023-05-09T08:56:52.453Z,37.45
2023-05-09T08:59:19.703Z,41.20
2023-05-09T09:01:46.956Z,55.28
2023-05-09T09:04:14.628Z,43.92
2023-05-09T09:06:41.775Z,35.08
2023-05-09T09:09:09.115Z,38.67
2023-05-09T09:11:37.076Z,38.03
2023-05-09T09:14:12.996Z,50.40
2023-05-09T09:16:43.875Z,54.38
2023-05-09T09:19:13.191Z,46.92
2023-05-09T09:21:47.370Z,50.00
2023-05-09T09:24:14.672Z,60.95
2023-05-09T09:26:48.717Z,39.97
2023-05-09T09:29:17.256Z,53.13
2023-05-09T09:31:48.188Z,40.97
2023-05-09T09:34:21.003Z,41.30
2023-05-09T09:36:48.766Z,42.40
2023-05-09T09:39:16.370Z,50.67
2023-05-09T09:41:44.902Z,69.88
2023-05-09T09:44:17.015Z,61.85
2023-05-09T09:46:55.187Z,35.13
2023-05-09T09:49:24.153Z,33.72
2023-05-09T09:51:55.512Z,36.17
2023-05-09T09:54:22.703Z,36.83
2023-05-09T09:56:54.239Z,37.30
2023-05-09T09:59:24.825Z,33.13
2023-05-09T10:01:59.914Z,40.35
2023-05-09T10:04:37.343Z,39.08
2023-05-09T10:07:05.951Z,43.85
2023-05-09T10:09:34.149Z,30.05
2023-05-09T10:12:06.030Z,33.85
2023-05-09T10:14:35.422Z,34.08
2023-05-09T10:17:04.330Z,36.88
2023-05-09T10:19:31.933Z,27.40
2023-05-09T10:22:04.053Z,46.72
2023-05-09T10:24:47.213Z,53.25
2023-05-09T10:27:14.523Z,57.45
2023-05-09T10:29:45.560Z,46.75
2023-05-09T10:32:17.576Z,33.03
2023-05-09T10:34:47.730Z,27.35
2023-05-09T10:37:16.124Z,30.38
2023-05-09T10:39:43.795Z,31.90
2023-05-09T10:42:11.205Z,20.13
2023-05-09T10:44:38.840Z,31.75
2023-05-09T10:47:06.110Z,14.13
2023-05-09T10:49:35.464Z,12.90
2023-05-09T10:52:04.806Z,19.75
2023-05-09T10:54:33.671Z,17.45
2023-05-09T13:45:44.065Z,28.55
